Time;durP1;ratioP1;P1;durP2;ratioP2;P2;SDS_P1;SDS_P2;PMS_P1;PMS_P2;Temp;Humidity;BMP_temperature;BMP_pressure;BME280_temperature;BME280_humidity;BME280_pressure;Samples;Min_cycle;Max_cycle;Signal;HPM_P1;HPM_P2
2023/01/03 00:02:07;;;;;;;10.63;7.40;;;11.00;99.90;;;10.90;65.71;100386.88;5112930;27;20621;-67
2023/01/03 00:04:36;;;;;;;12.83;8.03;;;11.00;99.90;;;10.91;66.23;100387.72;5108864;28;20253;-67
2023/01/03 00:07:04;;;;;;;15.00;7.80;;;11.00;99.90;;;10.90;65.71;100381.72;5106978;28;20628;-67
2023/01/03 00:09:33;;;;;;;11.10;7.67;;;11.00;99.90;;;10.93;65.67;100392.00;5107107;27;20717;-67
2023/01/03 00:14:55;;;;;;;9.80;7.23;;;11.00;99.90;;;10.95;65.63;100389.41;5110466;28;20215;-66
2023/01/03 00:17:24;;;;;;;12.10;7.87;;;11.10;99.90;;;10.96;65.38;100402.28;5109608;27;20258;-66
2023/01/03 00:19:53;;;;;;;12.97;7.30;;;11.10;99.90;;;10.92;65.46;100400.59;5109007;27;20236;-66
2023/01/03 00:22:22;;;;;;;12.37;7.70;;;11.10;99.90;;;10.94;65.81;100409.19;5108280;28;20208;-66
2023/01/03 00:24:53;;;;;;;10.80;7.37;;;11.00;99.90;;;10.93;65.90;100414.34;5103812;28;20254;-66
2023/01/03 00:27:22;;;;;;;12.27;7.93;;;11.00;99.90;;;10.91;65.86;100414.38;5108965;28;20612;-68
2023/01/03 00:29:51;;;;;;;11.20;7.60;;;11.00;99.90;;;10.89;65.60;100416.94;5111875;27;20716;-67
2023/01/03 00:32:19;;;;;;;13.33;7.70;;;11.00;99.90;;;10.86;65.93;100416.97;5110340;28;20709;-67
2023/01/03 00:34:48;;;;;;;11.60;7.87;;;11.00;99.90;;;10.84;65.94;100421.28;5108961;28;20251;-67
2023/01/03 00:37:17;;;;;;;9.07;7.03;;;11.00;99.90;;;10.83;65.93;100427.31;5109646;28;20240;-67
2023/01/03 00:39:45;;;;;;;14.50;8.03;;;10.90;99.90;;;10.81;66.35;100425.59;5110167;28;20233;-68
2023/01/03 00:42:14;;;;;;;11.80;7.60;;;10.90;99.90;;;10.78;66.43;100436.78;5105850;28;20234;-67
2023/01/03 00:44:43;;;;;;;13.97;8.47;;;10.90;99.90;;;10.77;66.29;100436.78;5109093;28;20267;-67
2023/01/03 00:47:12;;;;;;;11.20;7.17;;;10.90;99.90;;;10.76;66.77;100440.25;5110231;28;20629;-67
2023/01/03 00:49:40;;;;;;;15.50;8.50;;;10.80;99.90;;;10.74;66.33;100436.81;5114060;28;20243;-66
2023/01/03 00:52:08;;;;;;;10.67;7.90;;;10.80;99.90;;;10.73;66.75;100445.41;5108876;27;20656;-65
2023/01/03 00:54:37;;;;;;;9.60;6.80;;;10.80;99.90;;;10.72;66.66;100444.56;5111012;28;20300;-66
2023/01/03 00:57:05;;;;;;;10.93;7.17;;;10.80;99.90;;;10.72;66.53;100448.88;5113332;28;20323;-66
2023/01/03 00:59:34;;;;;;;10.10;6.80;;;10.80;99.90;;;10.72;66.96;100447.13;5113969;28;20279;-66
2023/01/03 01:02:04;;;;;;;12.40;8.30;;;10.80;99.90;;;10.72;66.93;100452.28;5113277;28;20204;-66
2023/01/03 01:04:32;;;;;;;13.43;7.53;;;10.80;99.90;;;10.70;66.73;100454.00;5113439;28;20212;-65
2023/01/03 01:07:03;;;;;;;11.27;7.77;;;10.80;99.90;;;10.71;67.22;100452.28;5112875;28;20207;-67
2023/01/03 01:09:35;;;;;;;11.97;7.40;;;10.80;99.90;;;10.69;67.27;100459.19;5113034;27;20235;-67
2023/01/03 01:12:05;;;;;;;11.37;7.40;;;10.80;99.90;;;10.70;67.11;100453.16;5112905;28;20227;-64
2023/01/03 01:14:34;;;;;;;10.77;7.77;;;10.80;99.90;;;10.69;67.02;100448.88;5113749;28;20696;-67
2023/01/03 01:17:07;;;;;;;16.83;7.57;;;10.80;99.90;;;10.68;67.24;100448.03;5113991;28;20309;-67
2023/01/03 01:19:38;;;;;;;13.13;7.63;;;10.80;99.90;;;10.71;67.15;100457.44;5104094;27;20227;-67
2023/01/03 01:22:08;;;;;;;13.37;7.73;;;10.80;99.90;;;10.72;67.61;100470.34;5114095;28;20275;-66
2023/01/03 01:24:36;;;;;;;11.77;7.80;;;10.80;99.90;;;10.72;67.31;100464.31;5109687;27;20259;-66
2023/01/03 01:27:05;;;;;;;11.97;7.57;;;10.80;99.90;;;10.73;67.06;100476.34;5113333;28;20208;-68
2023/01/03 01:29:34;;;;;;;13.77;8.03;;;10.80;99.90;;;10.74;67.30;100473.75;5112025;27;20213;-66
2023/01/03 01:32:04;;;;;;;14.60;7.80;;;10.90;99.90;;;10.75;67.07;100469.44;5113103;28;20220;-66
2023/01/03 01:34:33;;;;;;;10.30;7.33;;;10.90;99.90;;;10.78;66.93;100479.75;5112689;27;20204;-68
2023/01/03 01:37:01;;;;;;;13.97;7.43;;;10.90;99.90;;;10.80;66.60;100489.19;5113439;28;20223;-67
2023/01/03 01:39:31;;;;;;;12.70;7.20;;;10.90;99.90;;;10.81;67.04;100487.47;5109464;28;20800;-66
2023/01/03 01:44:58;;;;;;;12.60;7.73;;;10.90;99.90;;;10.80;66.58;100494.34;5111752;28;20214;-67
2023/01/03 01:47:45;;;;;;;9.53;6.87;;;10.90;99.90;;;10.83;66.87;100494.34;5112663;28;20651;-66
2023/01/03 01:50:22;;;;;;;10.60;7.30;;;11.00;99.90;;;10.85;67.06;100499.47;5107744;28;20336;-66
2023/01/03 01:52:57;;;;;;;10.93;6.70;;;11.00;99.90;;;10.85;67.00;100494.31;5113282;28;20204;-66
2023/01/03 01:55:34;;;;;;;11.60;6.93;;;11.00;99.90;;;10.86;66.91;100498.59;5112395;28;20219;-66
2023/01/03 01:58:04;;;;;;;11.73;7.30;;;10.90;99.90;;;10.85;67.05;100496.88;5110235;28;20233;-66
2023/01/03 02:00:34;;;;;;;11.30;6.77;;;11.00;99.90;;;10.84;66.45;100492.59;5110181;28;20224;-68
2023/01/03 02:03:04;;;;;;;15.60;7.53;;;11.00;99.90;;;10.85;66.81;100502.91;5111467;28;20196;-67
2023/01/03 02:05:37;;;;;;;10.13;7.10;;;11.00;99.90;;;10.86;66.91;100509.78;5112697;28;20210;-67
2023/01/03 02:08:06;;;;;;;12.53;7.17;;;11.00;99.90;;;10.87;66.61;100510.63;5112351;28;20253;-67
2023/01/03 02:10:57;;;;;;;10.33;7.50;;;10.90;99.90;;;10.86;66.85;100514.06;5109378;28;20204;-66
2023/01/03 02:13:38;;;;;;;11.40;7.30;;;11.00;99.90;;;10.89;66.81;100514.91;5109965;28;20671;-67
2023/01/03 02:16:55;;;;;;;10.07;7.00;;;11.00;99.90;;;10.89;67.01;100511.47;5100788;28;20265;-66
2023/01/03 02:20:02;;;;;;;9.67;6.33;;;11.00;99.90;;;10.92;66.67;100526.94;5109824;28;20278;-66
2023/01/03 02:23:21;;;;;;;9.60;6.80;;;11.00;99.90;;;10.90;67.18;100526.09;5107898;28;20324;-67
2023/01/03 02:26:23;;;;;;;12.97;7.00;;;11.00;99.90;;;10.92;67.11;100524.34;5091996;28;20208;-66
2023/01/03 02:29:21;;;;;;;11.07;7.03;;;11.00;99.90;;;10.93;66.92;100527.78;5104138;28;20203;-67
2023/01/03 02:32:01;;;;;;;10.47;6.57;;;11.00;99.90;;;10.94;67.07;100535.53;5103519;28;20200;-67
2023/01/03 02:34:42;;;;;;;8.87;6.37;;;11.00;99.90;;;10.93;67.21;100526.06;5111615;28;20210;-67
2023/01/03 02:37:22;;;;;;;13.27;7.10;;;11.00;99.90;;;10.93;67.22;100532.94;5102197;28;20212;-67
2023/01/03 02:40:04;;;;;;;14.17;7.17;;;11.00;99.90;;;10.89;66.88;100537.25;5111107;28;20554;-67
2023/01/03 02:43:00;;;;;;;8.67;6.37;;;11.00;99.90;;;10.89;67.68;100544.97;5110974;28;20657;-67
2023/01/03 02:45:47;;;;;;;11.57;7.00;;;11.00;99.90;;;10.87;67.17;100541.56;5101181;28;20223;-68
2023/01/03 02:48:26;;;;;;;11.67;7.67;;;11.00;99.90;;;10.86;67.61;100539.84;5108080;28;20640;-68
2023/01/03 02:50:59;;;;;;;12.53;7.20;;;11.00;99.90;;;10.84;67.40;100547.59;5107056;28;20208;-66
2023/01/03 02:53:32;;;;;;;12.63;7.13;;;11.00;99.90;;;10.84;68.24;100546.75;5109614;28;20244;-68
2023/01/03 02:56:07;;;;;;;11.47;7.00;;;10.90;99.90;;;10.81;67.66;100541.59;5111834;28;20216;-68
2023/01/03 02:58:39;;;;;;;9.47;6.93;;;10.90;99.90;;;10.80;68.37;100545.91;5110703;28;20196;-68
2023/01/03 03:01:10;;;;;;;10.50;7.33;;;10.90;99.90;;;10.79;68.08;100538.19;5109707;28;20216;-67
2023/01/03 03:03:41;;;;;;;11.37;6.97;;;10.90;99.90;;;10.79;68.67;100556.22;5110562;28;20200;-67
2023/01/03 03:06:17;;;;;;;12.97;7.70;;;10.90;99.90;;;10.78;68.33;100554.50;5109452;28;20196;-66
2023/01/03 03:08:47;;;;;;;11.83;7.30;;;10.90;99.90;;;10.76;69.30;100563.97;5109475;28;20210;-68
2023/01/03 03:14:09;;;;;;;11.73;6.77;;;10.90;99.90;;;10.72;69.52;100582.88;5097030;28;20207;-67
2023/01/03 03:16:49;;;;;;;10.77;6.80;;;10.80;99.90;;;10.68;69.92;100576.88;5110952;27;20260;-65
2023/01/03 03:25:25;;;;;;;10.53;6.13;;;10.70;99.90;;;10.59;70.42;100588.06;5101445;28;20203;-65
2023/01/03 03:30:50;;;;;;;8.47;6.73;;;10.70;99.90;;;10.56;70.58;100603.53;5111176;28;20207;-67
2023/01/03 03:33:21;;;;;;;11.00;7.00;;;10.70;99.90;;;10.55;70.93;100603.53;5110003;28;20288;-67
2023/01/03 03:35:57;;;;;;;11.30;6.63;;;10.60;99.90;;;10.52;71.02;100613.84;5111379;28;20297;-69
2023/01/03 03:38:32;;;;;;;10.10;6.57;;;10.60;99.90;;;10.46;71.18;100612.16;5105470;28;20189;-70
2023/01/03 03:46:58;;;;;;;10.00;6.57;;;10.50;99.90;;;10.31;72.32;100618.19;5107184;28;20212;-69
2023/01/03 03:49:39;;;;;;;11.77;6.60;;;10.40;99.90;;;10.28;72.66;100615.63;5110305;28;20253;-68
2023/01/03 03:52:13;;;;;;;12.10;6.13;;;10.40;99.90;;;10.22;72.62;100632.75;5110101;28;20443;-68
2023/01/03 03:54:49;;;;;;;9.80;5.83;;;10.30;99.90;;;10.15;72.41;100624.16;5109637;28;20200;-69
2023/01/03 03:57:26;;;;;;;9.70;6.63;;;10.20;99.90;;;10.09;73.10;100632.78;5109943;28;20216;-68
2023/01/03 03:59:59;;;;;;;12.07;5.77;;;10.20;99.90;;;10.07;72.84;100641.34;5111010;28;20215;-69
2023/01/03 04:02:30;;;;;;;9.13;5.27;;;10.10;99.90;;;10.03;72.85;100642.19;5103705;28;20667;-67
2023/01/03 04:05:05;;;;;;;7.70;5.33;;;10.10;99.90;;;9.98;73.88;100642.22;5110362;28;20211;-69
2023/01/03 04:07:35;;;;;;;7.67;5.20;;;10.10;99.90;;;9.97;73.33;100649.91;5100138;28;20195;-68
2023/01/03 04:10:05;;;;;;;7.90;5.20;;;10.10;99.90;;;9.94;73.30;100663.63;5108629;28;20261;-69
2023/01/03 04:12:34;;;;;;;9.03;5.50;;;10.10;99.90;;;9.93;73.39;100672.22;5108251;28;20188;-69
2023/01/03 04:15:02;;;;;;;8.10;5.30;;;10.00;99.90;;;9.90;73.54;100661.91;5110296;28;20204;-68
2023/01/03 04:17:31;;;;;;;7.93;4.97;;;10.00;99.90;;;9.89;73.62;100673.06;5107978;28;20232;-69
2023/01/03 04:19:59;;;;;;;7.87;4.50;;;9.90;99.90;;;9.86;73.29;100675.63;5110591;28;20200;-69
2023/01/03 04:22:27;;;;;;;7.37;4.70;;;9.90;99.90;;;9.82;73.66;100679.06;5109198;28;20216;-68
2023/01/03 04:24:57;;;;;;;8.17;5.10;;;9.90;99.90;;;9.75;72.90;100679.91;5109151;28;20196;-68
2023/01/03 04:27:26;;;;;;;6.77;4.60;;;9.80;99.90;;;9.73;73.37;100681.63;5109839;28;20273;-69
2023/01/03 04:29:54;;;;;;;7.40;4.73;;;9.80;99.90;;;9.70;73.51;100684.19;5108606;28;20200;-69
2023/01/03 04:32:22;;;;;;;7.23;4.00;;;9.80;99.90;;;9.67;73.59;100691.03;5109782;28;20196;-68
2023/01/03 04:34:51;;;;;;;7.17;3.67;;;9.80;99.90;;;9.67;72.84;100693.63;5110478;28;20256;-69
2023/01/03 04:37:19;;;;;;;3.97;2.80;;;9.70;99.90;;;9.64;72.31;100695.31;5111482;28;20223;-69
2023/01/03 04:39:48;;;;;;;4.63;2.93;;;9.70;99.90;;;9.63;72.02;100704.75;5110790;28;20664;-68
2023/01/03 04:45:04;;;;;;;3.70;2.27;;;9.70;99.90;;;9.57;71.80;100707.34;5115500;28;20265;-67
2023/01/03 04:47:32;;;;;;;3.47;2.77;;;9.70;99.90;;;9.57;70.79;100709.03;5108151;28;20208;-69
2023/01/03 04:50:01;;;;;;;2.87;2.17;;;9.60;99.90;;;9.55;70.62;100711.59;5110667;28;20552;-69
2023/01/03 04:52:29;;;;;;;3.70;2.20;;;9.70;99.90;;;9.54;70.97;100720.19;5109980;28;20204;-70
2023/01/03 04:54:58;;;;;;;2.87;1.93;;;9.60;99.90;;;9.53;70.49;100722.72;5109484;28;20261;-67
2023/01/03 04:57:27;;;;;;;2.00;1.67;;;9.60;99.90;;;9.51;71.14;100720.16;5100141;28;20327;-68
2023/01/03 04:59:56;;;;;;;2.57;1.80;;;9.60;99.90;;;9.50;70.09;100726.19;5110666;28;20228;-68
2023/01/03 05:02:24;;;;;;;2.00;1.70;;;9.60;99.90;;;9.50;70.11;100722.72;5108693;28;20200;-69
2023/01/03 05:04:53;;;;;;;1.80;1.70;;;9.60;99.90;;;9.49;69.71;100728.72;5102934;28;20208;-68
2023/01/03 05:07:21;;;;;;;2.10;1.30;;;9.60;99.90;;;9.47;69.44;100741.59;5110335;28;20236;-67
2023/01/03 05:09:49;;;;;;;1.83;1.47;;;9.60;99.90;;;9.46;69.31;100732.13;5109806;28;20580;-68
2023/01/03 05:12:18;;;;;;;2.30;1.83;;;9.60;99.90;;;9.44;69.77;100731.28;5110114;28;20714;-69
2023/01/03 05:14:47;;;;;;;2.30;1.57;;;9.50;99.90;;;9.43;68.49;100742.44;5110917;28;20582;-68
2023/01/03 05:17:17;;;;;;;3.43;2.13;;;9.50;99.90;;;9.43;69.39;100745.00;5098104;28;20273;-68
2023/01/03 05:28:08;;;;;;;2.20;1.83;;;9.50;99.90;;;9.41;68.33;100750.13;5070731;28;20208;-70
2023/01/03 05:30:45;;;;;;;2.47;2.03;;;9.50;99.90;;;9.40;68.64;100747.56;5111013;28;20570;-68
2023/01/03 05:33:14;;;;;;;2.83;2.00;;;9.50;99.90;;;9.40;68.94;100752.69;5100028;28;20215;-68
2023/01/03 05:35:47;;;;;;;2.80;1.70;;;9.40;99.90;;;9.36;69.45;100750.97;5111419;28;20220;-69
2023/01/03 05:38:15;;;;;;;2.43;2.00;;;9.40;99.90;;;9.34;70.30;100758.66;5114872;28;20212;-69
2023/01/03 05:40:44;;;;;;;3.63;1.97;;;9.40;99.90;;;9.33;70.36;100768.97;5114713;28;20200;-70
2023/01/03 05:43:14;;;;;;;2.73;1.90;;;9.40;99.90;;;9.28;70.34;100766.38;5113083;28;20200;-70
2023/01/03 05:45:42;;;;;;;4.10;1.93;;;9.30;99.90;;;9.23;69.82;100765.47;5118259;27;20203;-68
2023/01/03 05:48:12;;;;;;;2.57;1.70;;;9.30;99.90;;;9.17;70.48;100776.59;5113979;27;20283;-68
2023/01/03 05:50:41;;;;;;;3.40;1.87;;;9.20;99.90;;;9.14;70.35;100774.00;5110525;28;20196;-68
2023/01/03 05:53:09;;;;;;;3.43;2.00;;;9.20;99.90;;;9.09;70.17;100775.66;5112429;28;20640;-67
2023/01/03 05:55:39;;;;;;;3.83;2.00;;;9.20;99.90;;;9.05;71.16;100783.34;5121964;27;20204;-69
2023/01/03 05:58:08;;;;;;;2.40;1.60;;;9.10;99.90;;;9.00;70.92;100779.91;5112578;28;20251;-69
2023/01/03 06:00:36;;;;;;;4.47;2.07;;;9.10;99.90;;;8.95;71.22;100779.88;5108862;27;20644;-67
2023/01/03 06:03:04;;;;;;;3.73;2.20;;;8.90;99.90;;;8.87;70.32;100789.22;5112481;28;20312;-66
2023/01/03 06:05:34;;;;;;;3.07;2.10;;;8.90;99.90;;;8.82;71.22;100788.34;5109163;28;20700;-69
2023/01/03 06:08:03;;;;;;;3.57;2.00;;;8.80;99.90;;;8.75;71.00;100797.69;5113101;28;20512;-70
2023/01/03 06:10:31;;;;;;;4.00;2.10;;;8.80;99.90;;;8.72;71.56;100802.81;5109723;28;20204;-69
2023/01/03 06:13:00;;;;;;;4.53;2.70;;;8.80;99.90;;;8.69;70.77;100805.38;5111744;28;20249;-69
2023/01/03 06:15:28;;;;;;;4.57;2.37;;;8.70;99.90;;;8.65;71.09;100812.19;5106777;28;20207;-69
2023/01/03 06:18:01;;;;;;;5.50;2.20;;;8.70;99.90;;;8.62;70.97;100817.31;5111133;28;20235;-68
2023/01/03 06:20:31;;;;;;;4.97;2.63;;;8.70;99.90;;;8.62;71.14;100813.88;5110243;28;20207;-71
2023/01/03 06:23:00;;;;;;;4.23;2.40;;;8.70;99.90;;;8.60;71.75;100813.00;5110350;28;20208;-70
2023/01/03 06:25:29;;;;;;;4.13;2.47;;;8.70;99.90;;;8.62;71.27;100821.59;5112320;28;20235;-69
2023/01/03 06:27:57;;;;;;;5.27;2.60;;;8.70;99.90;;;8.64;71.54;100822.44;5112910;28;20256;-69
2023/01/03 06:30:25;;;;;;;4.77;2.77;;;8.70;99.90;;;8.62;72.09;100819.88;5106331;28;20215;-68
2023/01/03 06:32:54;;;;;;;4.33;3.07;;;8.70;99.90;;;8.65;72.40;100824.16;5108057;28;20204;-68
2023/01/03 06:35:22;;;;;;;4.77;2.20;;;8.70;99.90;;;8.64;73.27;100828.44;5113288;27;20639;-70
2023/01/03 06:37:51;;;;;;;3.77;2.40;;;8.70;99.90;;;8.61;72.50;100830.97;5109793;28;20251;-66
2023/01/03 06:40:20;;;;;;;5.23;2.10;;;8.70;99.90;;;8.60;72.81;100824.13;5104816;28;20345;-69
2023/01/03 06:42:49;;;;;;;4.37;2.13;;;8.70;99.90;;;8.58;72.07;100830.97;5111320;28;20254;-69
2023/01/03 06:53:45;;;;;;;3.97;2.00;;;8.60;99.90;;;8.55;71.99;100859.19;5084630;27;20600;-70
2023/01/03 06:56:15;;;;;;;3.53;1.70;;;8.70;99.90;;;8.54;71.56;100862.59;5107850;28;20578;-70
2023/01/03 06:58:43;;;;;;;2.57;1.63;;;8.60;99.90;;;8.53;71.66;100871.16;5116024;27;20255;-68
2023/01/03 07:01:14;;;;;;;1.60;1.50;;;8.60;99.90;;;8.50;71.71;100863.41;5107309;28;20257;-71
2023/01/03 07:03:42;;;;;;;1.97;1.40;;;8.60;99.90;;;8.50;72.11;100873.69;5109273;28;20456;-69
2023/01/03 07:06:11;;;;;;;3.10;1.63;;;8.60;99.90;;;8.51;71.41;100880.56;5104741;28;20231;-71
2023/01/03 07:08:39;;;;;;;3.60;2.53;;;8.60;99.90;;;8.47;71.50;100881.38;5106734;28;20580;-68
2023/01/03 07:11:16;;;;;;;1.67;1.50;;;8.60;99.90;;;8.45;71.14;100883.06;5106508;28;20204;-71
2023/01/03 07:13:59;;;;;;;1.77;1.40;;;8.50;99.90;;;8.46;71.17;100879.63;5106815;28;20638;-69
2023/01/03 07:16:31;;;;;;;4.67;1.60;;;8.60;99.90;;;8.46;70.94;100887.34;5104550;28;20315;-68
2023/01/03 07:19:00;;;;;;;2.83;1.40;;;8.60;99.90;;;8.42;71.12;100883.88;5108364;28;20238;-66
2023/01/03 07:21:31;;;;;;;2.80;1.93;;;8.50;99.90;;;8.45;70.95;100885.63;5106658;28;20241;-66
2023/01/03 07:24:01;;;;;;;5.60;1.80;;;8.60;99.90;;;8.45;70.23;100893.31;5108347;28;20268;-69
2023/01/03 07:26:34;;;;;;;3.10;1.20;;;8.60;99.90;;;8.47;71.09;100896.78;5111071;28;20853;-67
2023/01/03 07:29:05;;;;;;;2.87;1.50;;;8.50;99.90;;;8.46;70.31;100890.75;5109897;28;20203;-68
2023/01/03 07:31:34;;;;;;;5.43;2.43;;;8.50;99.90;;;8.47;71.07;100899.34;5101096;28;20196;-68
2023/01/03 07:34:02;;;;;;;1.70;1.60;;;8.50;99.90;;;8.46;71.07;100903.59;5104922;27;20633;-69
2023/01/03 07:36:31;;;;;;;4.30;1.90;;;8.50;99.90;;;8.50;70.87;100901.94;5111520;28;20204;-70
2023/01/03 07:38:59;;;;;;;4.13;1.60;;;8.60;99.90;;;8.49;70.97;100910.50;5109333;28;20601;-69
2023/01/03 07:44:12;;;;;;;7.93;3.73;;;8.60;99.90;;;8.53;71.54;100917.38;5109688;28;20200;-71
2023/01/03 07:46:40;;;;;;;5.83;2.57;;;8.60;99.90;;;8.56;71.21;100917.41;5107927;28;20210;-69
2023/01/03 07:49:09;;;;;;;5.93;2.10;;;8.70;99.90;;;8.57;71.85;100928.56;5102593;28;20207;-69
2023/01/03 07:51:39;;;;;;;3.10;1.80;;;8.70;99.90;;;8.61;71.97;100933.72;5109839;28;20204;-69
2023/01/03 07:54:08;;;;;;;3.93;2.17;;;8.70;99.90;;;8.65;70.96;100939.75;5111601;28;20236;-69
2023/01/03 07:56:36;;;;;;;4.27;2.30;;;8.70;99.90;;;8.70;71.54;100938.97;5105559;27;20204;-73
2023/01/03 07:59:05;;;;;;;6.33;2.43;;;8.80;99.90;;;8.72;71.83;100944.13;5106942;28;20707;-67
2023/01/03 08:01:35;;;;;;;4.27;2.23;;;8.80;99.90;;;8.77;71.95;100937.34;5111452;28;20748;-68
2023/01/03 08:04:03;;;;;;;3.30;2.40;;;8.80;99.90;;;8.80;71.51;100937.38;5108873;28;20212;-69
2023/01/03 08:06:33;;;;;;;5.63;2.60;;;8.90;99.90;;;8.88;71.92;100948.59;5107635;28;20286;-68
2023/01/03 08:14:37;;;;;;;4.43;2.70;;;9.10;99.90;;;9.18;71.94;100944.56;5107976;28;20211;-72
2023/01/03 08:17:07;;;;;;;5.00;3.17;;;9.30;99.90;;;9.29;71.57;100944.66;5106757;28;20557;-69
2023/01/03 08:19:35;;;;;;;6.10;3.83;;;9.40;99.90;;;9.37;71.69;100943.00;5106589;28;20453;-70
2023/01/03 08:22:12;;;;;;;6.53;2.90;;;9.50;99.90;;;9.50;71.41;100949.09;5109169;28;20334;-74
2023/01/03 08:24:41;;;;;;;4.73;3.47;;;9.50;99.90;;;9.55;70.56;100956.00;5109250;28;20558;-70
2023/01/03 08:27:09;;;;;;;4.35;3.47;;;9.60;99.90;;;9.59;70.28;100951.75;5108859;28;20492;-71
2023/01/03 08:29:38;;;;;;;3.87;3.10;;;9.60;99.90;;;9.63;70.10;100950.91;5106925;28;20204;-71
2023/01/03 08:32:08;;;;;;;5.17;3.40;;;9.70;99.90;;;9.71;71.21;100961.25;5109219;28;20211;-70
2023/01/03 08:34:40;;;;;;;6.17;3.63;;;9.80;99.90;;;9.86;70.85;100956.19;5106361;28;20208;-69
2023/01/03 08:37:11;;;;;;;5.80;3.93;;;9.90;99.90;;;10.10;70.41;100958.94;5109210;28;20276;-69
2023/01/03 08:39:48;;;;;;;7.07;3.80;;;10.20;99.90;;;10.24;69.08;100958.16;5108626;28;20242;-70
2023/01/03 08:42:22;;;;;;;4.77;3.60;;;10.30;99.90;;;10.44;69.70;100966.81;5109509;28;20656;-68
2023/01/03 08:44:56;;;;;;;6.47;4.23;;;10.50;99.90;;;10.57;69.45;100965.16;5106211;28;20204;-67
2023/01/03 08:47:26;;;;;;;4.97;3.87;;;10.70;99.90;;;10.58;68.07;100970.31;5109102;28;20204;-67
2023/01/03 08:49:55;;;;;;;6.07;4.67;;;10.70;99.90;;;10.85;69.46;100972.09;5108029;28;20495;-68
2023/01/03 08:52:23;;;;;;;9.30;5.00;;;11.10;99.90;;;10.78;67.32;100975.50;5110661;28;20207;-70
2023/01/03 08:54:58;;;;;;;5.27;4.23;;;11.00;99.90;;;10.64;67.32;100966.88;5106875;28;20195;-69
2023/01/03 08:57:27;;;;;;;5.10;3.83;;;10.80;99.90;;;10.49;66.94;100972.00;5110483;28;20215;-69
2023/01/03 08:59:55;;;;;;;4.63;4.10;;;10.60;99.90;;;10.33;67.29;100996.84;5109901;28;20246;-67
2023/01/03 09:02:25;;;;;;;6.53;4.43;;;10.40;99.90;;;10.15;67.35;100982.97;5105211;28;20196;-68
2023/01/03 09:04:54;;;;;;;6.53;4.00;;;10.20;99.90;;;10.03;68.07;100987.22;5105920;28;20276;-68
2023/01/03 09:07:22;;;;;;;4.40;3.47;;;10.10;99.90;;;9.95;68.48;100989.75;5108395;28;20613;-68
2023/01/03 09:09:51;;;;;;;3.90;3.50;;;10.10;99.90;;;9.88;68.66;100990.56;5110263;28;20212;-68
2023/01/03 09:12:19;;;;;;;5.00;4.13;;;9.90;99.90;;;9.82;68.70;100988.78;5107557;28;20664;-67
2023/01/03 09:14:47;;;;;;;5.70;3.47;;;9.90;99.90;;;9.82;68.79;101001.66;5109803;28;20195;-70
2023/01/03 09:17:16;;;;;;;3.97;3.23;;;9.90;99.90;;;9.94;68.57;101003.44;5108872;28;20203;-68
2023/01/03 09:19:46;;;;;;;4.37;3.37;;;10.00;99.90;;;10.54;68.45;100989.22;5112914;28;20268;-68
2023/01/03 09:22:14;;;;;;;6.17;3.20;;;10.70;99.90;;;11.08;66.89;100994.47;5107599;28;20339;-67
2023/01/03 09:24:42;;;;;;;5.03;3.20;;;11.30;99.90;;;12.26;67.83;101002.19;5106504;28;20644;-67
2023/01/03 09:27:11;;;;;;;3.10;2.63;;;12.60;99.90;;;14.08;60.28;100994.94;5111057;28;20215;-67
2023/01/03 09:29:39;;;;;;;2.90;2.30;;;14.40;99.90;;;16.47;53.60;100979.09;5109544;28;20196;-68
2023/01/03 09:32:08;;;;;;;2.83;2.10;;;16.80;99.90;;;18.24;45.14;100979.13;5111549;28;20235;-68
2023/01/03 09:34:37;;;;;;;2.77;1.97;;;18.30;99.90;;;18.28;43.23;100980.75;5111791;28;20554;-68
2023/01/03 09:37:07;;;;;;;5.17;1.60;;;18.20;99.90;;;18.77;42.52;100988.94;5112423;28;20204;-68
2023/01/03 09:39:35;;;;;;;2.40;1.50;;;19.20;99.90;;;18.48;41.11;100984.53;5107397;28;20691;-69
2023/01/03 09:44:48;;;;;;;2.93;1.53;;;18.30;93.60;;;17.67;40.86;101003.22;5075133;28;20221;-69
2023/01/03 09:47:22;;;;;;;1.30;1.20;;;18.00;95.00;;;18.90;38.87;100990.28;5110432;28;20249;-68
2023/01/03 09:49:53;;;;;;;4.13;1.45;;;19.50;93.40;;;20.36;36.30;101001.06;5112034;28;20203;-68
2023/01/03 10:04:49;;;;;;;1.70;0.98;;;27.40;54.00;;;27.51;21.91;100973.72;5103042;28;20207;-69
2023/01/03 10:07:41;;;;;;;3.10;1.00;;;27.80;50.40;;;25.52;22.48;100982.66;5100283;28;20211;-69
2023/01/03 10:10:22;;;;;;;1.98;1.13;;;25.70;49.30;;;23.35;24.91;100989.13;5112669;28;20246;-68
2023/01/03 10:13:06;;;;;;;6.22;0.98;;;23.50;51.50;;;21.58;27.35;100998.06;5110733;28;20199;-67
2023/01/03 10:15:45;;;;;;;1.17;0.80;;;21.80;54.00;;;21.77;28.44;100993.75;5110324;28;20251;-68
2023/01/03 10:18:36;;;;;;;1.10;0.80;;;22.30;56.60;;;23.45;26.63;100994.75;5110255;28;20235;-69
2023/01/03 10:21:11;;;;;;;1.02;0.80;;;23.70;55.60;;;23.88;25.46;100990.00;5108517;28;20293;-67
2023/01/03 10:23:39;;;;;;;1.38;0.85;;;23.90;53.50;;;24.34;23.92;100998.94;5111215;27;20252;-69
2023/01/03 10:26:12;;;;;;;2.80;1.38;;;24.20;52.20;;;24.19;23.44;100997.13;5109729;28;20196;-67
2023/01/03 10:28:44;;;;;;;1.83;0.82;;;24.10;50.40;;;23.16;24.25;100999.72;5109499;28;20204;-68
2023/01/03 10:31:29;;;;;;;2.92;1.17;;;23.10;50.80;;;21.33;25.62;101000.81;5112580;28;20192;-69
2023/01/03 10:33:58;;;;;;;2.50;1.00;;;21.40;51.30;;;19.71;28.03;101015.56;5107610;28;20200;-69
2023/01/03 10:36:26;;;;;;;1.63;1.08;;;19.80;53.30;;;18.17;29.94;101024.56;5112534;28;20281;-68
2023/01/03 10:39:07;;;;;;;2.35;1.10;;;18.20;55.10;;;16.82;32.59;101029.56;5112552;28;20226;-70
2023/01/03 10:41:43;;;;;;;1.63;0.80;;;16.90;57.60;;;16.02;34.69;101028.53;5113089;28;20721;-68
2023/01/03 10:44:24;;;;;;;1.63;0.95;;;16.20;60.70;;;15.72;34.89;101027.31;5109545;28;20210;-69
2023/01/03 10:46:56;;;;;;;1.63;0.80;;;15.90;60.50;;;16.36;34.75;101036.53;5110872;28;20248;-68
2023/01/03 10:49:27;;;;;;;1.25;0.90;;;16.50;61.40;;;16.37;34.08;101038.25;5112664;28;20625;-70
2023/01/03 10:52:01;;;;;;;2.13;1.03;;;16.30;60.40;;;15.81;34.83;101040.16;5107813;28;20196;-69
2023/01/03 10:54:45;;;;;;;4.77;2.03;;;15.80;61.00;;;15.32;35.62;101040.91;5112244;28;20295;-66
2023/01/03 10:57:42;;;;;;;6.17;2.47;;;15.30;62.80;;;14.62;36.65;101037.56;5110972;28;20206;-68
2023/01/03 11:00:28;;;;;;;2.67;1.37;;;14.70;63.60;;;14.09;38.41;101049.31;5109637;28;20289;-69
2023/01/03 11:03:10;;;;;;;2.00;1.10;;;14.10;65.60;;;13.66;39.07;101041.97;5111613;28;20195;-70
2023/01/03 11:05:42;;;;;;;1.93;1.10;;;13.70;66.90;;;13.63;39.84;101051.50;5107874;28;20199;-69
2023/01/03 11:08:21;;;;;;;1.00;0.83;;;13.60;68.80;;;14.01;42.62;101048.56;5108686;28;20511;-67
2023/01/03 11:10:58;;;;;;;2.77;0.90;;;14.00;73.00;;;16.28;38.56;101030.63;5110113;28;20202;-67
2023/01/03 11:13:37;;;;;;;2.67;1.00;;;16.30;71.40;;;17.21;35.07;101033.03;5109778;28;20261;-68
2023/01/03 11:16:15;;;;;;;0.97;0.80;;;17.00;65.80;;;20.07;31.20;101030.88;5108156;28;20207;-68
2023/01/03 11:18:58;;;;;;;2.55;1.33;;;19.60;63.50;;;23.03;26.30;101025.72;5110278;28;20253;-69
2023/01/03 11:21:34;;;;;;;1.42;1.02;;;22.30;58.20;;;25.41;22.43;101014.09;5110544;28;20222;-69
2023/01/03 11:24:14;;;;;;;1.55;0.95;;;24.40;53.50;;;27.26;20.33;101008.91;5106759;28;20195;-67
2023/01/03 11:26:51;;;;;;;1.83;1.00;;;26.10;49.60;;;27.64;18.70;101023.06;5108878;28;20719;-67
2023/01/03 11:29:47;;;;;;;1.70;0.90;;;26.40;45.50;;;27.26;18.95;101020.34;5106670;28;20203;-68
2023/01/03 11:32:37;;;;;;;2.45;1.10;;;26.20;45.60;;;25.58;20.22;101023.66;5109687;28;20342;-69
2023/01/03 11:35:32;;;;;;;2.03;1.17;;;24.90;45.90;;;26.45;20.51;101026.34;5099559;28;20276;-69
2023/01/03 11:38:19;;;;;;;3.10;1.20;;;25.70;46.90;;;26.36;19.56;101026.88;5109823;28;20200;-69
2023/01/03 11:41:00;;;;;;;1.48;1.08;;;25.80;45.30;;;25.82;20.70;101024.03;5104946;28;20212;-67
2023/01/03 11:43:48;;;;;;;4.15;1.63;;;25.10;46.90;;;25.03;21.09;101038.19;5105813;27;20218;-69
2023/01/03 11:46:44;;;;;;;2.83;1.50;;;24.70;46.20;;;23.23;23.01;101031.78;5108416;28;20743;-69